Time;durP1;ratioP1;P1;durP2;ratioP2;P2;SDS_P1;SDS_P2;PMS_P1;PMS_P2;Temp;Humidity;BMP_temperature;BMP_pressure;BME280_temperature;BME280_humidity;BME280_pressure;Samples;Min_cycle;Max_cycle;Signal;HPM_P1;HPM_P2
2022/08/01 00:00:46;;;;;;;;;;;;;;;-144.99;100.00;61100.13;5107508;27;19935;-62
2022/08/01 00:03:12;;;;;;;;;;;;;;;-144.99;100.00;61100.13;5110489;27;19923;-62
2022/08/01 00:05:41;;;;;;;;;;;;;;;-144.99;100.00;61100.13;5108982;27;20030;-65
2022/08/01 00:08:08;;;;;;;;;;;;;;;-144.99;100.00;61100.13;5117751;27;19924;-65
2022/08/01 00:10:34;;;;;;;;;;;;;;;-144.99;100.00;61100.13;5116689;27;19924;-64
2022/08/01 00:13:01;;;;;;;;;;;;;;;-144.99;100.00;61100.13;5102919;27;20012;-63
2022/08/01 00:15:27;;;;;;;;;;;;;;;-144.99;100.00;61100.13;5103846;28;20008;-65
2022/08/01 00:17:53;;;;;;;;;;;;;;;-144.99;100.00;61100.13;5104020;27;19923;-65
2022/08/01 00:20:20;;;;;;;;;;;;;;;-144.99;100.00;61100.13;5108450;27;20369;-66
2022/08/01 00:22:48;;;;;;;;;;;;;;;-144.99;100.00;61100.13;5106949;27;19930;-63
2022/08/01 00:25:14;;;;;;;;;;;;;;;-144.99;100.00;61100.13;5112179;27;20304;-65
2022/08/01 00:27:40;;;;;;;;;;;;;;;-144.99;100.00;61100.13;5111878;27;20026;-67
2022/08/01 00:30:07;;;;;;;;;;;;;;;-144.99;100.00;61100.13;5102710;27;20038;-65
2022/08/01 00:32:34;;;;;;;;;;;;;;;-144.99;100.00;61100.13;5105123;27;19955;-64
2022/08/01 00:35:00;;;;;;;;;;;;;;;-144.99;100.00;61100.13;5110285;27;19931;-65
2022/08/01 00:37:27;;;;;;;;;;;;;;;-144.99;100.00;61100.13;5109413;27;19957;-65
2022/08/01 00:39:54;;;;;;;;;;;;;;;-144.99;100.00;61100.13;5104916;27;19927;-63
2022/08/01 00:42:21;;;;;;;;;;;;;;;-144.99;100.00;61100.13;5105172;27;19931;-63
2022/08/01 00:44:47;;;;;;;;;;;;;;;-144.99;100.00;61100.13;5107289;27;20204;-63
2022/08/01 00:47:14;;;;;;;;;;;;;;;-144.99;100.00;61100.13;5106353;27;19949;-63
2022/08/01 00:49:40;;;;;;;;;;;;;;;-144.99;100.00;61100.13;5108602;27;20019;-64
2022/08/01 00:52:07;;;;;;;;;;;;;;;-144.99;100.00;61100.13;5107033;27;20025;-65
2022/08/01 00:54:33;;;;;;;;;;;;;;;-144.99;100.00;61100.13;5100573;27;19928;-66
2022/08/01 00:57:01;;;;;;;;;;;;;;;-144.99;100.00;61100.13;5107242;27;20018;-65
2022/08/01 00:59:28;;;;;;;;;;;;;;;-144.99;100.00;61100.13;5106447;28;20436;-65
2022/08/01 01:01:54;;;;;;;;;;;;;;;-144.99;100.00;61100.13;5100875;27;20299;-66
2022/08/01 01:04:21;;;;;;;;;;;;;;;-144.99;100.00;61100.13;5104878;27;19932;-64
2022/08/01 01:06:52;;;;;;;;;;;;;;;-144.99;100.00;61100.13;5110531;27;19930;-67
2022/08/01 01:09:24;;;;;;;;;;;;;;;-144.99;100.00;61100.13;5108579;27;20381;-65
2022/08/01 01:12:13;;;;;;;;;;;;;;;-144.99;100.00;61100.13;5107913;27;20296;-64
2022/08/01 01:14:46;;;;;;;;;;;;;;;-144.99;100.00;61100.13;5101289;28;19924;-64
2022/08/01 01:17:15;;;;;;;;;;;;;;;-144.99;100.00;61100.13;5107074;27;20064;-64
2022/08/01 01:19:52;;;;;;;;;;;;;;;-144.99;100.00;61100.13;5099842;27;19924;-66
2022/08/01 01:22:23;;;;;;;;;;;;;;;-144.99;100.00;61100.13;5103782;27;19986;-66
2022/08/01 01:24:59;;;;;;;;;;;;;;;-144.99;100.00;61100.13;5104185;27;19924;-64
2022/08/01 01:27:30;;;;;;;;;;;;;;;-144.99;100.00;61100.13;5112281;27;19934;-65
2022/08/01 01:29:59;;;;;;;;;;;;;;;-144.99;100.00;61100.13;5101705;27;19999;-64
2022/08/01 01:32:33;;;;;;;;;;;;;;;-144.99;100.00;61100.13;5105278;27;19923;-67
2022/08/01 01:34:59;;;;;;;;;;;;;;;-144.99;100.00;61100.13;5106987;28;20433;-65
2022/08/01 01:37:27;;;;;;;;;;;;;;;-144.99;100.00;61100.13;5105004;27;19959;-63
2022/08/01 01:39:54;;;;;;;;;;;;;;;-144.99;100.00;61100.13;5106877;27;19927;-62
2022/08/01 01:42:21;;;;;;;;;;;;;;;-144.99;100.00;61100.13;5107315;28;20012;-65
2022/08/01 01:44:49;;;;;;;;;;;;;;;-144.99;100.00;61100.13;5113766;27;19924;-63
2022/08/01 01:47:17;;;;;;;;;;;;;;;-144.99;100.00;61100.13;5115498;27;20040;-64
2022/08/01 01:49:45;;;;;;;;;;;;;;;-144.99;100.00;61100.13;5104547;28;19928;-65
2022/08/01 01:52:13;;;;;;;;;;;;;;;-144.99;100.00;61100.13;5111513;28;21916;-66
2022/08/01 01:54:41;;;;;;;;;;;;;;;-144.99;100.00;61100.13;5109542;28;19971;-65
2022/08/01 01:57:09;;;;;;;;;;;;;;;-144.99;100.00;61100.13;5112877;28;20288;-62
2022/08/01 01:59:37;;;;;;;;;;;;;;;-144.99;100.00;61100.13;5107458;28;19923;-63
2022/08/01 02:02:05;;;;;;;;;;;;;;;-144.99;100.00;61100.13;5109555;28;19924;-62
2022/08/01 02:04:33;;;;;;;;;;;;;;;-144.99;100.00;61100.13;5112452;28;19924;-63
2022/08/01 02:07:01;;;;;;;;;;;;;;;-144.99;100.00;61100.13;5105592;28;19923;-63
2022/08/01 02:09:28;;;;;;;;;;;;;;;-144.99;100.00;61100.13;5108021;28;19995;-64
2022/08/01 02:11:56;;;;;;;;;;;;;;;-144.99;100.00;61100.13;5102788;27;20022;-64
2022/08/01 02:14:23;;;;;;;;;;;;;;;-144.99;100.00;61100.13;5111774;27;19933;-66
2022/08/01 02:16:50;;;;;;;;;;;;;;;-144.99;100.00;61100.13;5116204;27;20471;-69
2022/08/01 02:19:18;;;;;;;;;;;;;;;-144.99;100.00;61100.13;5108574;27;20364;-68
2022/08/01 02:21:48;;;;;;;;;;;;;;;-144.99;100.00;61100.13;5110434;27;20333;-64
2022/08/01 02:24:19;;;;;;;;;;;;;;;-144.99;100.00;61100.13;5108288;27;20177;-64
2022/08/01 02:26:48;;;;;;;;;;;;;;;-144.99;100.00;61100.13;5103025;27;20011;-64
2022/08/01 02:29:17;;;;;;;;;;;;;;;-144.99;100.00;61100.13;5112125;27;20034;-62
2022/08/01 02:31:46;;;;;;;;;;;;;;;-144.99;100.00;61100.13;5109943;27;20419;-63
2022/08/01 02:34:15;;;;;;;;;;;;;;;-144.99;100.00;61100.13;5110518;27;19923;-63
2022/08/01 02:36:44;;;;;;;;;;;;;;;-144.99;100.00;61100.13;5103610;27;20357;-62
2022/08/01 02:39:17;;;;;;;;;;;;;;;-144.99;100.00;61100.13;5112973;27;20258;-62
2022/08/01 02:41:46;;;;;;;;;;;;;;;-144.99;100.00;61100.13;5110237;27;19935;-65
2022/08/01 02:44:19;;;;;;;;;;;;;;;-144.99;100.00;61100.13;5111365;27;20283;-62
2022/08/01 02:46:49;;;;;;;;;;;;;;;-144.99;100.00;61100.13;5110094;27;19931;-64
2022/08/01 02:49:19;;;;;;;;;;;;;;;-144.99;100.00;61100.13;5107990;27;19927;-63
2022/08/01 02:51:47;;;;;;;;;;;;;;;-144.99;100.00;61100.13;5114847;27;19963;-67
2022/08/01 02:54:16;;;;;;;;;;;;;;;-144.99;100.00;61100.13;5109059;27;19927;-65
2022/08/01 02:56:44;;;;;;;;;;;;;;;-144.99;100.00;61100.13;5104049;27;20038;-67
2022/08/01 02:59:13;;;;;;;;;;;;;;;-144.99;100.00;61100.13;5111130;27;19978;-65
2022/08/01 03:01:41;;;;;;;;;;;;;;;-144.99;100.00;61100.13;5104602;27;19989;-66
2022/08/01 03:04:07;;;;;;;;;;;;;;;-144.99;100.00;61100.13;5108990;27;19930;-64
2022/08/01 03:06:34;;;;;;;;;;;;;;;-144.99;100.00;61100.13;5104844;27;19927;-66
2022/08/01 03:09:02;;;;;;;;;;;;;;;-144.99;100.00;61100.13;5105137;27;19974;-65
2022/08/01 03:11:30;;;;;;;;;;;;;;;-144.99;100.00;61100.13;5110134;27;20131;-62
2022/08/01 03:13:57;;;;;;;;;;;;;;;-144.99;100.00;61100.13;5103976;27;20376;-61
2022/08/01 03:16:24;;;;;;;;;;;;;;;-144.99;100.00;61100.13;5108889;27;19923;-62
2022/08/01 03:18:52;;;;;;;;;;;;;;;-144.99;100.00;61100.13;5103824;27;19947;-61
2022/08/01 03:21:20;;;;;;;;;;;;;;;-144.99;100.00;61100.13;5107630;27;19938;-62
2022/08/01 03:23:48;;;;;;;;;;;;;;;-144.99;100.00;61100.13;5110016;27;19924;-61
2022/08/01 03:26:15;;;;;;;;;;;;;;;-144.99;100.00;61100.13;5108974;27;19938;-62
2022/08/01 03:28:45;;;;;;;;;;;;;;;-144.99;100.00;61100.13;5108991;22;19928;-64
2022/08/01 03:31:13;;;;;;;;;;;;;;;-144.99;100.00;61100.13;5097037;28;20018;-63
2022/08/01 03:33:39;;;;;;;;;;;;;;;-144.99;100.00;61100.13;5098629;28;20037;-65
2022/08/01 03:36:09;;;;;;;;;;;;;;;-144.99;100.00;61100.13;5096096;28;19959;-64
2022/08/01 03:38:38;;;;;;;;;;;;;;;-144.99;100.00;61100.13;5095919;28;20014;-64
2022/08/01 03:41:09;;;;;;;;;;;;;;;-144.99;100.00;61100.13;5092864;28;19924;-62
2022/08/01 03:43:40;;;;;;;;;;;;;;;-144.99;100.00;61100.13;5098975;28;19930;-63
2022/08/01 03:46:11;;;;;;;;;;;;;;;-144.99;100.00;61100.13;5091623;28;19993;-63
2022/08/01 03:48:41;;;;;;;;;;;;;;;-144.99;100.00;61100.13;5091543;28;19971;-62
2022/08/01 03:51:09;;;;;;;;;;;;;;;-144.99;100.00;61100.13;5090413;28;19949;-63
2022/08/01 03:53:37;;;;;;;;;;;;;;;-144.99;100.00;61100.13;5092323;28;20051;-62
2022/08/01 03:56:08;;;;;;;;;;;;;;;-144.99;100.00;61100.13;5088507;28;19924;-60
2022/08/01 03:58:35;;;;;;;;;;;;;;;-144.99;100.00;61100.13;5097511;28;19930;-60
2022/08/01 04:01:02;;;;;;;;;;;;;;;-144.99;100.00;61100.13;5094480;28;20047;-60
2022/08/01 04:03:30;;;;;;;;;;;;;;;-144.99;100.00;61100.13;5089725;28;20029;-60
2022/08/01 04:05:56;;;;;;;;;;;;;;;-144.99;100.00;61100.13;5090512;28;20367;-60
2022/08/01 04:08:23;;;;;;;;;;;;;;;-144.99;100.00;61100.13;5091080;28;19924;-60
2022/08/01 04:10:49;;;;;;;;;;;;;;;-144.99;100.00;61100.13;5090915;28;20027;-60
2022/08/01 04:13:16;;;;;;;;;;;;;;;-144.99;100.00;61100.13;5090524;28;19924;-60
2022/08/01 04:15:42;;;;;;;;;;;;;;;-144.99;100.00;61100.13;5079551;28;20017;-62
2022/08/01 04:18:08;;;;;;;;;;;;;;;-144.99;100.00;61100.13;5091044;28;20269;-61
2022/08/01 04:20:36;;;;;;;;;;;;;;;-144.99;100.00;61100.13;5090586;28;19934;-61
2022/08/01 04:23:03;;;;;;;;;;;;;;;-144.99;100.00;61100.13;5094620;28;19924;-62
2022/08/01 04:25:33;;;;;;;;;;;;;;;-144.99;100.00;61100.13;5090452;28;20018;-63
2022/08/01 04:28:03;;;;;;;;;;;;;;;-144.99;100.00;61100.13;5094412;28;19928;-63
2022/08/01 04:30:32;;;;;;;;;;;;;;;-144.99;100.00;61100.13;5087494;28;19934;-62
2022/08/01 04:33:00;;;;;;;;;;;;;;;-144.99;100.00;61100.13;5096811;28;20011;-62
2022/08/01 04:35:27;;;;;;;;;;;;;;;-144.99;100.00;61100.13;5092803;28;19971;-63
2022/08/01 04:37:55;;;;;;;;;;;;;;;-144.99;100.00;61100.13;5091849;28;19987;-64
2022/08/01 04:40:22;;;;;;;;;;;;;;;-144.99;100.00;61100.13;5093045;28;20011;-64
2022/08/01 04:42:50;;;;;;;;;;;;;;;-144.99;100.00;61100.13;5094170;28;20347;-64
2022/08/01 04:45:17;;;;;;;;;;;;;;;-144.99;100.00;61100.13;5095194;28;20423;-64
2022/08/01 04:47:43;;;;;;;;;;;;;;;-144.99;100.00;61100.13;5090869;28;20010;-66
2022/08/01 04:50:11;;;;;;;;;;;;;;;-144.99;100.00;61100.13;5087482;28;19928;-69
2022/08/01 04:52:38;;;;;;;;;;;;;;;-144.99;100.00;61100.13;5093554;28;20312;-69
2022/08/01 04:55:06;;;;;;;;;;;;;;;-144.99;100.00;61100.13;5088924;28;19963;-69
2022/08/01 04:57:35;;;;;;;;;;;;;;;-144.99;100.00;61100.13;5096680;28;19934;-67
2022/08/01 05:00:02;;;;;;;;;;;;;;;-144.99;100.00;61100.13;5089565;28;20019;-68
2022/08/01 05:02:28;;;;;;;;;;;;;;;-144.99;100.00;61100.13;5092319;28;19978;-69
2022/08/01 05:04:55;;;;;;;;;;;;;;;-144.99;100.00;61100.13;5097353;28;19924;-70
2022/08/01 05:07:22;;;;;;;;;;;;;;;-144.99;100.00;61100.13;5088050;28;20347;-70
2022/08/01 05:09:48;;;;;;;;;;;;;;;-144.99;100.00;61100.13;4384148;28;10000714;-70
2022/08/01 05:12:16;;;;;;;;;;;;;;;-144.99;100.00;61100.13;5088325;28;20018;-70
2022/08/01 05:14:43;;;;;;;;;;;;;;;-144.99;100.00;61100.13;5085338;28;20022;-70
2022/08/01 05:17:10;;;;;;;;;;;;;;;-144.99;100.00;61100.13;5089323;28;19930;-70
2022/08/01 05:19:38;;;;;;;;;;;;;;;-144.99;100.00;61100.13;5093130;28;19943;-70
2022/08/01 05:22:05;;;;;;;;;;;;;;;-144.99;100.00;61100.13;5088822;28;20592;-70
2022/08/01 05:24:32;;;;;;;;;;;;;;;-144.99;100.00;61100.13;5089054;28;20264;-70
2022/08/01 05:26:59;;;;;;;;;;;;;;;-144.99;100.00;61100.13;5085520;28;20321;-70
2022/08/01 05:29:27;;;;;;;;;;;;;;;-144.99;100.00;61100.13;5093115;28;20245;-71
2022/08/01 05:31:53;;;;;;;;;;;;;;;-144.99;100.00;61100.13;5089899;28;20368;-71
2022/08/01 05:34:20;;;;;;;;;;;;;;;-144.99;100.00;61100.13;5095760;28;20121;-71
2022/08/01 05:36:47;;;;;;;;;;;;;;;-144.99;100.00;61100.13;5088159;28;19936;-71
2022/08/01 05:39:13;;;;;;;;;;;;;;;-144.99;100.00;61100.13;5092158;28;20054;-71
2022/08/01 05:41:40;;;;;;;;;;;;;;;-144.99;100.00;61100.13;5086670;28;19932;-71
2022/08/01 05:44:07;;;;;;;;;;;;;;;-144.99;100.00;61100.13;5082463;28;20277;-71
2022/08/01 05:46:35;;;;;;;;;;;;;;;-144.99;100.00;61100.13;5084578;28;20011;-71
2022/08/01 05:49:02;;;;;;;;;;;;;;;-144.99;100.00;61100.13;5078313;28;19931;-72
2022/08/01 05:51:29;;;;;;;;;;;;;;;-144.99;100.00;61100.13;5079525;28;19982;-72
2022/08/01 05:53:56;;;;;;;;;;;;;;;-144.99;100.00;61100.13;5085766;28;19994;-71
2022/08/01 05:56:23;;;;;;;;;;;;;;;-144.99;100.00;61100.13;5080517;28;19959;-71
2022/08/01 05:58:50;;;;;;;;;;;;;;;-144.99;100.00;61100.13;5077375;28;20021;-71
2022/08/01 06:01:16;;;;;;;;;;;;;;;-144.99;100.00;61100.13;5083503;28;19924;-71
2022/08/01 06:03:44;;;;;;;;;;;;;;;-144.99;100.00;61100.13;5066542;28;19939;-72
2022/08/01 06:06:11;;;;;;;;;;;;;;;-144.99;100.00;61100.13;5080513;28;19935;-71
2022/08/01 06:08:37;;;;;;;;;;;;;;;-144.99;100.00;61100.13;5086280;28;19973;-72
2022/08/01 06:11:04;;;;;;;;;;;;;;;-144.99;100.00;61100.13;5083087;28;19934;-71
2022/08/01 06:13:30;;;;;;;;;;;;;;;-144.99;100.00;61100.13;5088081;28;19999;-72
2022/08/01 06:15:57;;;;;;;;;;;;;;;-144.99;100.00;61100.13;5084801;28;20015;-71
2022/08/01 06:18:24;;;;;;;;;;;;;;;-144.99;100.00;61100.13;5086589;28;20335;-72
2022/08/01 06:20:51;;;;;;;;;;;;;;;-144.99;100.00;61100.13;5085095;28;19928;-72
2022/08/01 06:23:18;;;;;;;;;;;;;;;-144.99;100.00;61100.13;5084953;28;19971;-72
2022/08/01 06:25:44;;;;;;;;;;;;;;;-144.99;100.00;61100.13;5083775;28;20507;-72
2022/08/01 06:28:11;;;;;;;;;;;;;;;-144.99;100.00;61100.13;5085284;28;19994;-72
2022/08/01 06:30:37;;;;;;;;;;;;;;;-144.99;100.00;61100.13;5081082;28;19935;-72
2022/08/01 06:33:04;;;;;;;;;;;;;;;-144.99;100.00;61100.13;5085375;28;20048;-71
2022/08/01 06:35:31;;;;;;;;;;;;;;;-144.99;100.00;61100.13;5085020;28;20016;-72
2022/08/01 06:37:58;;;;;;;;;;;;;;;-144.99;100.00;61100.13;5085201;28;19927;-72
2022/08/01 06:40:25;;;;;;;;;;;;;;;-144.99;100.00;61100.13;5084803;28;19970;-72
2022/08/01 06:42:51;;;;;;;;;;;;;;;-144.99;100.00;61100.13;5084833;28;19928;-72
2022/08/01 06:45:18;;;;;;;;;;;;;;;-144.99;100.00;61100.13;5085403;28;19934;-72
2022/08/01 06:47:45;;;;;;;;;;;;;;;-144.99;100.00;61100.13;5085023;28;20019;-71
2022/08/01 06:50:13;;;;;;;;;;;;;;;-144.99;100.00;61100.13;5084874;28;19963;-71
2022/08/01 06:52:40;;;;;;;;;;;;;;;-144.99;100.00;61100.13;4733629;28;9999624;-72
2022/08/01 06:55:08;;;;;;;;;;;;;;;-144.99;100.00;61100.13;5084276;28;19931;-71
2022/08/01 06:57:35;;;;;;;;;;;;;;;-144.99;100.00;61100.13;5085037;28;19928;-71
2022/08/01 07:00:02;;;;;;;;;;;;;;;-144.99;100.00;61100.13;5086574;28;20027;-71
2022/08/01 07:02:29;;;;;;;;;;;;;;;-144.99;100.00;61100.13;5088300;28;20029;-71
2022/08/01 07:04:55;;;;;;;;;;;;;;;-144.99;100.00;61100.13;5088147;28;19979;-71
2022/08/01 07:07:22;;;;;;;;;;;;;;;-144.99;100.00;61100.13;5088939;28;19987;-70
2022/08/01 07:09:48;;;;;;;;;;;;;;;-144.99;100.00;61100.13;5069163;28;20004;-70
2022/08/01 07:12:16;;;;;;;;;;;;;;;-144.99;100.00;61100.13;5089449;28;19967;-73
2022/08/01 07:14:42;;;;;;;;;;;;;;;-144.99;100.00;61100.13;5089644;28;19935;-71
2022/08/01 07:17:09;;;;;;;;;;;;;;;-144.99;100.00;61100.13;5088735;28;20038;-71
2022/08/01 07:19:35;;;;;;;;;;;;;;;-144.99;100.00;61100.13;5080480;28;19954;-71
2022/08/01 07:22:01;;;;;;;;;;;;;;;-144.99;100.00;61100.13;5080067;28;19928;-71
2022/08/01 07:24:28;;;;;;;;;;;;;;;-144.99;100.00;61100.13;5087054;28;19924;-71
2022/08/01 07:26:57;;;;;;;;;;;;;;;-144.99;100.00;61100.13;5077644;28;20909;-73
2022/08/01 07:29:25;;;;;;;;;;;;;;;-144.99;100.00;61100.13;5087467;28;19934;-72
2022/08/01 07:31:52;;;;;;;;;;;;;;;-144.99;100.00;61100.13;5081054;28;19959;-72
2022/08/01 07:34:19;;;;;;;;;;;;;;;-144.99;100.00;61100.13;5088162;28;19924;-71
2022/08/01 07:36:47;;;;;;;;;;;;;;;-144.99;100.00;61100.13;5087854;28;19968;-73
2022/08/01 07:39:13;;;;;;;;;;;;;;;-144.99;100.00;61100.13;5088549;28;19929;-72
2022/08/01 07:41:40;;;;;;;;;;;;;;;-144.99;100.00;61100.13;5087820;28;20285;-73
2022/08/01 07:44:06;;;;;;;;;;;;;;;-144.99;100.00;61100.13;5085001;28;20380;-71
2022/08/01 07:46:34;;;;;;;;;;;;;;;-144.99;100.00;61100.13;5088321;28;19924;-72
2022/08/01 07:49:01;;;;;;;;;;;;;;;-144.99;100.00;61100.13;5088534;28;20018;-71
2022/08/01 07:51:27;;;;;;;;;;;;;;;-144.99;100.00;61100.13;5086673;28;19951;-71
2022/08/01 07:53:54;;;;;;;;;;;;;;;-144.99;100.00;61100.13;5081968;28;19959;-70
2022/08/01 07:56:23;;;;;;;;;;;;;;;-144.99;100.00;61100.13;5087760;28;19928;-71
2022/08/01 07:58:50;;;;;;;;;;;;;;;-144.99;100.00;61100.13;5086846;28;19924;-70
2022/08/01 08:01:17;;;;;;;;;;;;;;;-144.99;100.00;61100.13;5087581;28;20023;-72
2022/08/01 08:03:45;;;;;;;;;;;;;;;-144.99;100.00;61100.13;5087779;28;20388;-71
2022/08/01 08:06:12;;;;;;;;;;;;;;;-144.99;100.00;61100.13;5086763;28;19970;-71
2022/08/01 08:08:38;;;;;;;;;;;;;;;-144.99;100.00;61100.13;5088358;28;20177;-70
2022/08/01 08:11:05;;;;;;;;;;;;;;;-144.99;100.00;61100.13;5088112;28;19924;-72
2022/08/01 08:13:31;;;;;;;;;;;;;;;-144.99;100.00;61100.13;5086004;28;19932;-71
2022/08/01 08:15:58;;;;;;;;;;;;;;;-144.99;100.00;61100.13;5080701;28;19934;-70
2022/08/01 08:18:25;;;;;;;;;;;;;;;-144.99;100.00;61100.13;5086330;28;20424;-71
2022/08/01 08:20:52;;;;;;;;;;;;;;;-144.99;100.00;61100.13;5087626;28;20450;-71
2022/08/01 08:26:03;;;;;;;;;;;;;;;-144.99;100.00;61100.13;5077272;28;20035;-71
2022/08/01 08:28:29;;;;;;;;;;;;;;;-144.99;100.00;61100.13;5086749;28;19928;-71
2022/08/01 08:30:56;;;;;;;;;;;;;;;-144.99;100.00;61100.13;5084623;28;19930;-72
2022/08/01 08:33:22;;;;;;;;;;;;;;;-144.99;100.00;61100.13;5082724;28;19928;-71
2022/08/01 08:35:49;;;;;;;;;;;;;;;-144.99;100.00;61100.13;5086592;28;20027;-71
2022/08/01 08:38:17;;;;;;;;;;;;;;;-144.99;100.00;61100.13;5086165;28;20022;-70
2022/08/01 08:40:43;;;;;;;;;;;;;;;-144.99;100.00;61100.13;5086849;28;19954;-70
2022/08/01 08:43:10;;;;;;;;;;;;;;;-144.99;100.00;61100.13;5074607;28;20355;-70
2022/08/01 08:45:36;;;;;;;;;;;;;;;-144.99;100.00;61100.13;5086703;28;19930;-66
2022/08/01 08:48:03;;;;;;;;;;;;;;;-144.99;100.00;61100.13;5086820;28;19990;-69
2022/08/01 08:50:30;;;;;;;;;;;;;;;-144.99;100.00;61100.13;5086685;28;19928;-70
2022/08/01 08:52:56;;;;;;;;;;;;;;;-144.99;100.00;61100.13;5083822;28;20377;-69
2022/08/01 08:55:25;;;;;;;;;;;;;;;-144.99;100.00;61100.13;5086738;28;20399;-69
2022/08/01 08:57:52;;;;;;;;;;;;;;;-144.99;100.00;61100.13;5084066;28;20051;-72
2022/08/01 09:00:19;;;;;;;;;;;;;;;-144.99;100.00;61100.13;5086529;28;19931;-67
2022/08/01 09:02:46;;;;;;;;;;;;;;;-144.99;100.00;61100.13;5086486;28;19924;-66
2022/08/01 09:05:13;;;;;;;;;;;;;;;-144.99;100.00;61100.13;5085685;28;19928;-67
2022/08/01 09:07:39;;;;;;;;;;;;;;;-144.99;100.00;61100.13;5086249;28;20018;-67
2022/08/01 09:10:06;;;;;;;;;;;;;;;-144.99;100.00;61100.13;5086292;28;19934;-65
2022/08/01 09:12:34;;;;;;;;;;;;;;;-144.99;100.00;61100.13;5086533;28;19932;-67
2022/08/01 09:15:01;;;;;;;;;;;;;;;-144.99;100.00;61100.13;5083310;28;20027;-68
2022/08/01 09:17:27;;;;;;;;;;;;;;;-144.99;100.00;61100.13;5086465;28;19928;-67
2022/08/01 09:19:54;;;;;;;;;;;;;;;-144.99;100.00;61100.13;5086081;28;20460;-68
2022/08/01 09:22:22;;;;;;;;;;;;;;;-144.99;100.00;61100.13;5085052;28;19928;-69
2022/08/01 09:24:59;;;;;;;;;;;;;;;-144.99;100.00;61100.13;5081331;28;19928;-69
2022/08/01 09:27:26;;;;;;;;;;;;;;;-144.99;100.00;61100.13;5077505;28;19950;-70
2022/08/01 09:29:54;;;;;;;;;;;;;;;-144.99;100.00;61100.13;5108224;22;20266;-63
2022/08/01 09:32:21;;;;;;;;;;;;;;;-144.99;100.00;61100.13;5102193;28;19963;-66
2022/08/01 09:34:48;;;;;;;;;;;;;;;-144.99;100.00;61100.13;5088910;28;20018;-66
2022/08/01 09:37:17;;;;;;;;;;;;;;;-144.99;100.00;61100.13;5095165;28;20100;-65
2022/08/01 09:39:45;;;;;;;;;;;;;;;-144.99;100.00;61100.13;5084505;28;19924;-66
2022/08/01 09:42:21;;;;;;;;;;;;;;;-144.99;100.00;61100.13;5086637;28;19928;-66
2022/08/01 09:44:48;;;;;;;;;;;;;;;-144.99;100.00;61100.13;5068694;28;19929;-65
2022/08/01 09:47:16;;;;;;;;;;;;;;;-144.99;100.00;61100.13;5079156;28;19924;-67
2022/08/01 09:49:43;;;;;;;;;;;;;;;-144.99;100.00;61100.13;5086171;28;19931;-67
2022/08/01 09:52:13;;;;;;;;;;;;;;;-144.99;100.00;61100.13;5071526;28;19925;-67
2022/08/01 09:54:40;;;;;;;;;;;;;;;-144.99;100.00;61100.13;5067928;28;20389;-65
2022/08/01 09:57:10;;;;;;;;;;;;;;;-144.99;100.00;61100.13;5076402;28;19960;-65
2022/08/01 09:59:40;;;;;;;;;;;;;;;-144.99;100.00;61100.13;5085146;28;20136;-65
2022/08/01 10:02:06;;;;;;;;;;;;;;;-144.99;100.00;61100.13;5086024;28;19985;-65
2022/08/01 10:04:34;;;;;;;;;;;;;;;-144.99;100.00;61100.13;5086886;28;19924;-65
2022/08/01 10:07:04;;;;;;;;;;;;;;;-144.99;100.00;61100.13;5086236;28;20283;-67
2022/08/01 10:09:34;;;;;;;;;;;;;;;-144.99;100.00;61100.13;5085679;28;19930;-67
2022/08/01 10:12:01;;;;;;;;;;;;;;;-144.99;100.00;61100.13;5075028;28;19924;-64
2022/08/01 10:14:28;;;;;;;;;;;;;;;-144.99;100.00;61100.13;5085773;28;19934;-67
2022/08/01 10:16:58;;;;;;;;;;;;;;;-144.99;100.00;61100.13;5085607;28;19924;-65
2022/08/01 10:19:25;;;;;;;;;;;;;;;-144.99;100.00;61100.13;5086148;28;20048;-66
2022/08/01 10:21:54;;;;;;;;;;;;;;;-144.99;100.00;61100.13;5085018;28;20469;-65
2022/08/01 10:24:21;;;;;;;;;;;;;;;-144.99;100.00;61100.13;5071223;28;19931;-66
2022/08/01 10:26:48;;;;;;;;;;;;;;;-144.99;100.00;61100.13;5073032;28;20345;-65
2022/08/01 10:29:18;;;;;;;;;;;;;;;-144.99;100.00;61100.13;5066886;28;19929;-66
2022/08/01 10:31:44;;;;;;;;;;;;;;;-144.99;100.00;61100.13;5076673;28;19940;-67
2022/08/01 10:34:11;;;;;;;;;;;;;;;-144.99;100.00;61100.13;5067392;28;19925;-66
2022/08/01 10:36:38;;;;;;;;;;;;;;;-144.99;100.00;61100.13;5076856;28;19934;-66
2022/08/01 10:39:06;;;;;;;;;;;;;;;-144.99;100.00;61100.13;5088285;28;20012;-66
2022/08/01 10:41:34;;;;;;;;;;;;;;;-144.99;100.00;61100.13;5081177;28;19939;-65
2022/08/01 10:44:02;;;;;;;;;;;;;;;-144.99;100.00;61100.13;5079496;28;20019;-66
2022/08/01 10:46:29;;;;;;;;;;;;;;;-144.99;100.00;61100.13;5071034;28;19931;-66
2022/08/01 10:48:57;;;;;;;;;;;;;;;-144.99;100.00;61100.13;5074898;28;20369;-66
2022/08/01 10:51:24;;;;;;;;;;;;;;;-144.99;100.00;61100.13;5080229;28;19935;-66
2022/08/01 10:53:51;;;;;;;;;;;;;;;-144.99;100.00;61100.13;5090445;28;19924;-65
2022/08/01 10:56:19;;;;;;;;;;;;;;;-144.99;100.00;61100.13;5090300;28;19928;-66
2022/08/01 10:58:47;;;;;;;;;;;;;;;-144.99;100.00;61100.13;5091179;28;19972;-66
2022/08/01 11:01:15;;;;;;;;;;;;;;;-144.99;100.00;61100.13;4737629;28;9999987;-66
2022/08/01 11:03:41;;;;;;;;;;;;;;;-144.99;100.00;61100.13;5087974;28;19974;-66
2022/08/01 11:06:16;;;;;;;;;;;;;;;-144.99;100.00;61100.13;5079862;28;20022;-66
2022/08/01 11:08:43;;;;;;;;;;;;;;;-144.99;100.00;61100.13;5088543;28;20036;-66
2022/08/01 11:11:10;;;;;;;;;;;;;;;-144.99;100.00;61100.13;5089403;28;19987;-65
2022/08/01 11:13:54;;;;;;;;;;;;;;;-144.99;100.00;61100.13;5086511;28;20039;-66
2022/08/01 11:16:29;;;;;;;;;;;;;;;-144.99;100.00;61100.13;5082357;28;19934;-65
2022/08/01 11:18:55;;;;;;;;;;;;;;;-144.99;100.00;61100.13;5081492;28;20328;-66
2022/08/01 11:21:23;;;;;;;;;;;;;;;-144.99;100.00;61100.13;5086418;28;20112;-66
2022/08/01 11:23:53;;;;;;;;;;;;;;;-144.99;100.00;61100.13;5087119;28;20002;-66
2022/08/01 11:26:20;;;;;;;;;;;;;;;-144.99;100.00;61100.13;5082526;28;19931;-66
2022/08/01 11:28:47;;;;;;;;;;;;;;;-144.99;100.00;61100.13;5075892;28;19929;-68
2022/08/01 11:31:27;;;;;;;;;;;;;;;-144.99;100.00;61100.13;5076839;28;19924;-67
2022/08/01 11:33:55;;;;;;;;;;;;;;;-144.99;100.00;61100.13;5087010;28;19930;-65
2022/08/01 11:36:22;;;;;;;;;;;;;;;-144.99;100.00;61100.13;5088715;28;20011;-67
2022/08/01 11:38:50;;;;;;;;;;;;;;;-144.99;100.00;61100.13;5087474;28;19959;-66
2022/08/01 11:41:19;;;;;;;;;;;;;;;-144.99;100.00;61100.13;5076329;28;20351;-65
2022/08/01 11:43:56;;;;;;;;;;;;;;;-144.99;100.00;61100.13;5080623;28;19931;-65
2022/08/01 11:46:37;;;;;;;;;;;;;;;-144.99;100.00;61100.13;5067477;28;19973;-65
2022/08/01 11:49:22;;;;;;;;;;;;;;;-144.99;100.00;61100.13;5087112;28;19950;-66
2022/08/01 11:51:50;;;;;;;;;;;;;;;-144.99;100.00;61100.13;5079658;28;19934;-66
2022/08/01 11:54:17;;;;;;;;;;;;;;;-144.99;100.00;61100.13;5086671;28;20427;-66
2022/08/01 11:56:43;;;;;;;;;;;;;;;-144.99;100.00;61100.13;5077060;28;19985;-66
2022/08/01 11:59:10;;;;;;;;;;;;;;;-144.99;100.00;61100.13;5081434;28;20324;-65
2022/08/01 12:01:36;;;;;;;;;;;;;;;-144.99;100.00;61100.13;5086587;28;20019;-65
2022/08/01 12:04:03;;;;;;;;;;;;;;;-144.99;100.00;61100.13;5085579;28;19931;-65
2022/08/01 12:06:29;;;;;;;;;;;;;;;-144.99;100.00;61100.13;5087728;28;19928;-65
2022/08/01 12:09:15;;;;;;;;;;;;;;;-144.99;100.00;61100.13;5087821;28;20361;-64
2022/08/01 12:11:41;;;;;;;;;;;;;;;-144.99;100.00;61100.13;5087568;28;20031;-66
2022/08/01 12:14:08;;;;;;;;;;;;;;;-144.99;100.00;61100.13;5084215;28;20012;-66
2022/08/01 12:16:34;;;;;;;;;;;;;;;-144.99;100.00;61100.13;5078425;28;19931;-65
2022/08/01 12:19:00;;;;;;;;;;;;;;;-144.99;100.00;61100.13;5087996;28;20329;-65
2022/08/01 12:21:27;;;;;;;;;;;;;;;-144.99;100.00;61100.13;5083813;28;20076;-65
2022/08/01 12:24:02;;;;;;;;;;;;;;;-144.99;100.00;61100.13;5078959;28;20023;-65